createdAt,value
2022-11-16T00:01:31.781Z,10.02
2022-11-16T00:03:33.474Z,9.48
2022-11-16T00:05:37.860Z,9.32
2022-11-16T00:07:39.192Z,9.85
2022-11-16T00:09:40.620Z,9.07
2022-11-16T00:11:41.977Z,9.35
2022-11-16T00:13:43.685Z,8.50
2022-11-16T00:16:02.106Z,9.27
2022-11-16T00:18:03.440Z,9.15
2022-11-16T00:20:10.742Z,9.25
2022-11-16T00:22:12.013Z,9.88
2022-11-16T00:24:17.128Z,9.80
2022-11-16T00:26:18.700Z,9.75
2022-11-16T00:28:26.276Z,9.32
2022-11-16T00:30:30.210Z,9.25
2022-11-16T00:32:37.367Z,9.70
2022-11-16T00:34:46.829Z,9.63
2022-11-16T00:36:57.046Z,9.10
2022-11-16T00:39:07.298Z,9.00
2022-11-16T00:41:14.945Z,8.98
2022-11-16T00:43:16.365Z,9.13
2022-11-16T00:45:23.768Z,8.48
2022-11-16T00:47:25.260Z,8.45
2022-11-16T00:49:26.754Z,8.75
2022-11-16T00:51:28.056Z,8.45
2022-11-16T00:53:35.636Z,7.85
2022-11-16T00:56:01.720Z,8.35
2022-11-16T00:58:09.011Z,8.35
2022-11-16T01:00:13.658Z,8.43
2022-11-16T01:02:18.120Z,8.43
2022-11-16T01:04:19.521Z,7.78
2022-11-16T01:06:26.829Z,7.43
2022-11-16T01:08:28.696Z,7.47
2022-11-16T01:10:30.124Z,7.32
2022-11-16T01:12:31.476Z,6.18
2022-11-16T01:14:32.798Z,6.47
2022-11-16T01:16:36.991Z,6.57
2022-11-16T01:18:38.345Z,6.20
2022-11-16T01:20:40.410Z,6.15
2022-11-16T01:22:42.033Z,5.47
2022-11-16T01:24:45.015Z,6.55
2022-11-16T01:26:49.235Z,6.35
2022-11-16T01:28:53.629Z,6.15
2022-11-16T01:30:55.161Z,4.93
2022-11-16T01:33:02.682Z,4.25
2022-11-16T01:35:04.549Z,4.60
2022-11-16T01:37:08.688Z,5.40
2022-11-16T01:39:16.414Z,4.35
2022-11-16T01:41:19.356Z,5.13
2022-11-16T01:43:35.067Z,4.82
2022-11-16T01:45:48.844Z,6.60
2022-11-16T01:47:50.737Z,6.20
2022-11-16T01:50:07.626Z,6.10
2022-11-16T01:52:14.306Z,6.18
2022-11-16T01:54:16.347Z,5.95
2022-11-16T01:56:17.813Z,6.07
2022-11-16T01:58:28.044Z,5.65
2022-11-16T02:00:35.120Z,6.72
2022-11-16T02:02:36.455Z,6.85
2022-11-16T02:04:44.122Z,6.88
2022-11-16T02:07:10.265Z,6.35
2022-11-16T02:09:58.477Z,7.90
2022-11-16T02:12:21.395Z,8.00
2022-11-16T02:14:41.224Z,7.72
2022-11-16T02:16:50.889Z,8.88
2022-11-16T02:19:03.094Z,8.18
2022-11-16T02:21:22.518Z,8.02
2022-11-16T02:23:45.355Z,8.18
2022-11-16T02:26:05.081Z,8.43
2022-11-16T02:28:31.818Z,8.55
2022-11-16T02:30:34.627Z,9.02
2022-11-16T02:32:39.220Z,9.00
2022-11-16T02:34:49.888Z,8.95
2022-11-16T02:36:52.741Z,9.30
2022-11-16T02:39:17.133Z,9.10
2022-11-16T02:41:27.737Z,9.65
2022-11-16T02:43:57.955Z,9.50
2022-11-16T02:46:05.999Z,9.43
2022-11-16T02:48:15.041Z,9.20
2022-11-16T02:50:25.377Z,8.82
2022-11-16T02:52:32.898Z,9.00
2022-11-16T02:54:34.217Z,9.65
2022-11-16T02:56:54.550Z,8.73
2022-11-16T02:58:57.555Z,9.23
2022-11-16T03:01:01.155Z,9.25
2022-11-16T03:03:29.798Z,9.02
2022-11-16T03:05:33.515Z,9.18
2022-11-16T03:07:44.954Z,9.13
2022-11-16T03:09:50.230Z,9.85
2022-11-16T03:12:02.159Z,9.35
2022-11-16T03:14:09.245Z,9.90
2022-11-16T03:16:15.699Z,10.07
2022-11-16T03:18:17.805Z,9.52
2022-11-16T03:20:22.438Z,10.35
2022-11-16T03:22:34.020Z,11.05
2022-11-16T03:24:35.355Z,10.55
2022-11-16T03:26:58.893Z,10.32
2022-11-16T03:29:02.899Z,11.00
2022-11-16T03:31:07.788Z,10.45
2022-11-16T03:33:22.168Z,10.95
2022-11-16T03:35:39.210Z,10.55
2022-11-16T03:37:49.448Z,10.50
2022-11-16T03:39:52.734Z,11.07
2022-11-16T03:41:54.637Z,10.40
2022-11-16T03:43:56.564Z,11.57
2022-11-16T03:46:11.674Z,11.68
2022-11-16T03:48:13.338Z,11.68
2022-11-16T03:50:20.816Z,10.98
2022-11-16T03:52:22.185Z,11.60
2022-11-16T03:54:30.882Z,11.85
2022-11-16T03:56:32.175Z,11.60
2022-11-16T03:58:33.785Z,10.80
2022-11-16T04:00:35.306Z,11.25
2022-11-16T04:02:36.882Z,11.70
2022-11-16T04:04:57.847Z,11.85
2022-11-16T04:09:43.776Z,11.73
2022-11-16T04:12:03.387Z,11.15
2022-11-16T04:14:23.324Z,10.75
2022-11-16T04:16:52.211Z,11.38
2022-11-16T04:19:18.094Z,11.43
2022-11-16T04:21:46.169Z,10.85
2022-11-16T04:24:06.533Z,10.93
2022-11-16T04:26:17.136Z,10.65
2022-11-16T04:28:29.200Z,10.75
2022-11-16T04:30:53.279Z,10.70
2022-11-16T04:33:13.402Z,10.63
2022-11-16T04:35:46.955Z,11.45
2022-11-16T04:37:57.064Z,11.80
2022-11-16T04:40:01.308Z,10.90
2022-11-16T04:42:32.910Z,10.65
2022-11-16T04:45:05.112Z,11.45
2022-11-16T04:47:09.236Z,10.02
2022-11-16T04:49:10.608Z,10.35
2022-11-16T04:51:15.177Z,10.50
2022-11-16T04:53:16.702Z,10.50
2022-11-16T04:55:20.805Z,9.70
2022-11-16T04:57:31.104Z,10.82
2022-11-16T04:59:32.397Z,10.30
2022-11-16T05:01:52.738Z,10.35
2022-11-16T05:03:54.098Z,9.23
2022-11-16T05:06:01.239Z,9.23
2022-11-16T05:08:09.426Z,10.30
2022-11-16T05:10:11.197Z,10.65
2022-11-16T05:12:23.278Z,10.48
2022-11-16T05:14:24.607Z,10.50
2022-11-16T05:16:26.050Z,10.90
2022-11-16T05:18:30.297Z,10.63
2022-11-16T05:20:53.262Z,10.45
2022-11-16T05:23:00.469Z,11.75
2022-11-16T05:25:10.682Z,10.80
2022-11-16T05:27:13.971Z,11.90
2022-11-16T05:29:15.253Z,11.18
2022-11-16T05:31:25.196Z,11.68
2022-11-16T05:33:32.348Z,11.57
2022-11-16T05:35:39.446Z,11.05
2022-11-16T05:37:40.744Z,11.55
2022-11-16T05:39:42.118Z,11.40
2022-11-16T05:41:46.601Z,11.60
2022-11-16T05:43:47.847Z,10.88
2022-11-16T05:45:56.356Z,11.57
2022-11-16T05:47:57.697Z,11.35
2022-11-16T05:49:59.030Z,10.98
2022-11-16T05:52:00.584Z,9.63
2022-11-16T05:54:15.155Z,10.00
2022-11-16T05:56:16.935Z,10.75
2022-11-16T05:58:21.279Z,10.77
2022-11-16T06:00:34.634Z,11.15
2022-11-16T06:02:42.071Z,9.48
2022-11-16T06:04:43.412Z,9.38
2022-11-16T06:06:44.687Z,9.45
2022-11-16T06:08:51.974Z,9.20
2022-11-16T06:10:53.282Z,10.13
2022-11-16T06:13:19.756Z,10.75
2022-11-16T06:15:21.252Z,11.40
2022-11-16T06:17:28.518Z,10.93
2022-11-16T06:19:32.532Z,8.50
2022-11-16T06:21:37.195Z,9.15
2022-11-16T06:23:38.846Z,8.25
2022-11-16T06:25:40.153Z,7.85
2022-11-16T06:27:44.039Z,7.22
2022-11-16T06:29:45.332Z,7.05
2022-11-16T06:31:46.677Z,8.18
2022-11-16T06:33:47.963Z,6.85
2022-11-16T06:35:49.278Z,7.60
2022-11-16T06:37:50.685Z,8.30
2022-11-16T06:39:57.675Z,8.23
2022-11-16T06:41:59.125Z,8.00
2022-11-16T06:44:00.415Z,8.05
2022-11-16T06:46:01.707Z,8.77
2022-11-16T06:48:02.962Z,7.82
2022-11-16T06:50:04.445Z,6.53
2022-11-16T06:52:05.830Z,6.72
2022-11-16T06:54:07.186Z,7.28
2022-11-16T06:56:10.341Z,5.97
2022-11-16T06:58:17.746Z,6.32
2022-11-16T07:00:27.932Z,4.38
2022-11-16T07:02:29.241Z,2.90
2022-11-16T07:04:31.743Z,1.65
2022-11-16T07:06:40.643Z,1.35
2022-11-16T07:08:48.090Z,1.20
2022-11-16T07:10:49.359Z,1.00
2022-11-16T07:12:50.728Z,1.10
2022-11-16T07:14:54.612Z,1.25
2022-11-16T07:17:09.163Z,1.30
2022-11-16T07:19:21.794Z,1.00
2022-11-16T07:21:23.374Z,1.00
2022-11-16T07:23:29.852Z,1.42
2022-11-16T07:25:34.171Z,1.20
2022-11-16T07:27:35.525Z,1.55
2022-11-16T07:29:39.841Z,1.80
2022-11-16T07:31:48.790Z,1.58
2022-11-16T07:33:51.257Z,1.73
2022-11-16T07:35:52.530Z,2.17
2022-11-16T07:38:05.565Z,3.13
2022-11-16T07:40:07.234Z,4.25
2022-11-16T07:42:19.600Z,4.00
2022-11-16T07:44:21.303Z,4.10
2022-11-16T07:46:46.496Z,4.63
2022-11-16T07:48:45.102Z,4.53
2022-11-16T07:50:46.636Z,4.88
2022-11-16T07:52:54.866Z,4.68
2022-11-16T07:54:56.136Z,4.88
2022-11-16T07:56:57.498Z,5.10
2022-11-16T07:58:59.484Z,5.45
2022-11-16T08:01:07.076Z,5.47
2022-11-16T08:03:08.388Z,5.35
2022-11-16T08:05:21.868Z,6.10
2022-11-16T08:07:26.363Z,5.68
2022-11-16T08:09:27.710Z,5.28
2022-11-16T08:13:53.730Z,5.75
2022-11-16T08:15:55.080Z,6.53
2022-11-16T08:18:06.575Z,6.18
2022-11-16T08:20:08.478Z,5.63
2022-11-16T08:22:17.127Z,7.03
2022-11-16T08:24:18.439Z,6.53
2022-11-16T08:26:21.894Z,6.70
2022-11-16T08:28:23.200Z,6.47
2022-11-16T08:30:24.523Z,7.32
2022-11-16T08:32:38.847Z,7.38
2022-11-16T08:34:40.107Z,8.02
2022-11-16T08:36:41.483Z,8.68
2022-11-16T08:39:04.431Z,9.50
2022-11-16T08:41:09.043Z,8.90
2022-11-16T08:43:13.417Z,8.00
2022-11-16T08:45:34.017Z,8.45
2022-11-16T08:47:35.525Z,7.80
2022-11-16T08:49:37.059Z,8.27
2022-11-16T08:51:38.410Z,8.20
2022-11-16T08:53:39.877Z,7.97
2022-11-16T08:55:43.997Z,7.88
2022-11-16T08:57:45.317Z,8.63
2022-11-16T08:59:52.698Z,7.28
2022-11-16T09:01:56.862Z,7.63
2022-11-16T09:04:05.818Z,7.03
2022-11-16T09:06:16.501Z,7.13
2022-11-16T09:08:25.235Z,7.05
2022-11-16T09:10:29.597Z,5.75
2022-11-16T09:12:30.903Z,7.25
2022-11-16T09:14:40.902Z,6.22
2022-11-16T09:16:48.114Z,4.90
2022-11-16T09:18:50.868Z,6.38
2022-11-16T09:20:52.218Z,5.97
2022-11-16T09:22:59.828Z,5.15
2022-11-16T09:25:07.121Z,5.68
2022-11-16T09:27:08.549Z,4.65
2022-11-16T09:29:13.715Z,2.85
2022-11-16T09:31:19.001Z,2.80
2022-11-16T09:33:24.426Z,2.90
2022-11-16T09:35:35.537Z,5.57
2022-11-16T09:37:36.774Z,2.38
2022-11-16T09:39:38.044Z,1.05
2022-11-16T09:41:57.468Z,0.77
2022-11-16T09:44:17.436Z,1.02
2022-11-16T09:46:57.887Z,0.83
2022-11-16T09:49:17.200Z,1.40
2022-11-16T09:51:26.852Z,0.73
2022-11-16T09:53:48.029Z,0.60
2022-11-16T09:56:02.559Z,0.60
2022-11-16T09:58:07.962Z,0.70
2022-11-16T10:00:20.411Z,0.70
2022-11-16T10:02:48.723Z,1.00
2022-11-16T10:05:03.144Z,1.20
2022-11-16T10:07:29.354Z,0.80
2022-11-16T10:09:30.662Z,0.80
2022-11-16T10:11:54.828Z,0.63
2022-11-16T10:14:20.812Z,0.63
2022-11-16T10:16:37.563Z,0.93
2022-11-16T10:18:48.326Z,1.05
2022-11-16T10:23:22.185Z,1.38
2022-11-16T10:25:33.397Z,0.90
2022-11-16T10:28:06.982Z,1.30
2022-11-16T10:30:17.705Z,0.80
2022-11-16T10:34:22.537Z,0.95
2022-11-16T10:36:31.208Z,0.70
2022-11-16T10:38:35.393Z,0.60
2022-11-16T10:40:40.656Z,0.73
2022-11-16T10:42:41.934Z,0.70
2022-11-16T10:44:59.762Z,0.50
2022-11-16T10:47:19.869Z,1.17
2022-11-16T10:49:41.086Z,0.60
2022-11-16T10:51:50.175Z,0.50
2022-11-16T10:54:11.573Z,0.90
2022-11-16T10:56:17.348Z,1.30
2022-11-16T10:58:18.779Z,0.70
2022-11-16T11:00:43.502Z,0.75
2022-11-16T11:02:52.685Z,1.00
2022-11-16T11:05:12.436Z,0.70
2022-11-16T11:07:24.516Z,0.70
2022-11-16T11:09:28.841Z,0.35
2022-11-16T11:11:55.722Z,0.65
2022-11-16T11:14:23.388Z,0.80
2022-11-16T11:16:30.544Z,0.90
2022-11-16T11:18:42.234Z,0.60
2022-11-16T11:20:45.549Z,0.80
2022-11-16T11:22:57.804Z,0.50
2022-11-16T11:25:06.682Z,0.70
2022-11-16T11:27:08.123Z,0.60
2022-11-16T11:29:30.292Z,0.75
2022-11-16T11:32:00.352Z,0.60
2022-11-16T11:34:20.661Z,0.60
2022-11-16T11:36:45.559Z,0.63
2022-11-16T11:39:04.312Z,0.50
2022-11-16T11:41:18.769Z,0.50
2022-11-16T11:43:24.396Z,0.50
2022-11-16T11:45:41.875Z,0.43
2022-11-16T11:47:58.466Z,0.80
2022-11-16T11:50:25.036Z,0.55
2022-11-16T11:52:32.129Z,0.50
2022-11-16T11:54:45.852Z,0.82
2022-11-16T11:56:47.841Z,0.40
2022-11-16T11:58:52.245Z,0.80
2022-11-16T12:01:13.943Z,0.43
2022-11-16T12:03:41.292Z,0.60
2022-11-16T12:06:00.996Z,0.82
2022-11-16T12:08:22.373Z,0.80
2022-11-16T12:11:01.803Z,2.53
2022-11-16T12:13:03.136Z,1.13
2022-11-16T12:15:07.380Z,0.57
2022-11-16T12:17:20.864Z,0.82
2022-11-16T12:19:45.476Z,0.70
2022-11-16T12:21:59.615Z,0.90
2022-11-16T12:24:15.625Z,1.10
2022-11-16T12:26:23.021Z,0.90
2022-11-16T12:28:49.957Z,1.10
2022-11-16T12:31:02.634Z,0.80
2022-11-16T12:33:23.522Z,0.88
2022-11-16T12:35:40.326Z,0.90
2022-11-16T12:38:00.281Z,0.93
2022-11-16T12:40:20.183Z,0.73
2022-11-16T12:42:35.438Z,0.60
2022-11-16T12:44:48.668Z,0.60
2022-11-16T12:47:14.265Z,1.00
2022-11-16T12:49:37.193Z,1.20
2022-11-16T12:51:47.531Z,0.80
2022-11-16T12:54:11.712Z,0.80
2022-11-16T12:56:37.806Z,0.70
2022-11-16T12:58:57.993Z,0.85
2022-11-16T13:01:27.899Z,0.90
2022-11-16T13:03:46.835Z,0.90
2022-11-16T13:05:54.454Z,0.80
2022-11-16T13:08:07.850Z,0.88
2022-11-16T13:10:24.400Z,0.80
2022-11-16T13:12:27.703Z,0.77
2022-11-16T13:14:38.909Z,1.02
2022-11-16T13:16:40.654Z,0.93
2022-11-16T13:18:44.893Z,1.50
2022-11-16T13:20:58.525Z,0.90
2022-11-16T13:23:07.436Z,1.20
2022-11-16T13:25:17.007Z,0.90
2022-11-16T13:27:32.790Z,0.73
2022-11-16T13:29:37.199Z,0.70
2022-11-16T13:31:50.589Z,1.00
2022-11-16T13:34:01.262Z,0.77
2022-11-16T13:36:30.489Z,0.88
2022-11-16T13:38:58.191Z,1.20
2022-11-16T13:41:18.431Z,1.00
2022-11-16T13:43:19.992Z,1.08
2022-11-16T13:45:22.015Z,1.10
2022-11-16T13:47:30.723Z,1.30
2022-11-16T13:49:36.794Z,1.45
2022-11-16T13:51:50.220Z,1.40
2022-11-16T13:56:15.988Z,1.00
2022-11-16T13:58:24.383Z,1.10
2022-11-16T14:00:36.048Z,0.90
2022-11-16T14:02:47.942Z,1.17
2022-11-16T14:04:56.675Z,1.05
2022-11-16T14:07:01.196Z,1.15
2022-11-16T14:09:33.010Z,1.38
2022-11-16T14:11:43.614Z,1.60
2022-11-16T14:13:51.028Z,2.63
2022-11-16T14:16:13.472Z,2.10
2022-11-16T14:18:14.727Z,2.60
2022-11-16T14:20:29.417Z,1.42
2022-11-16T14:23:02.810Z,1.27
2022-11-16T14:25:13.679Z,1.65
2022-11-16T14:27:41.639Z,1.38
2022-11-16T14:29:49.072Z,2.00
2022-11-16T14:31:52.486Z,2.05
2022-11-16T14:34:04.045Z,1.73
2022-11-16T14:36:07.440Z,1.52
2022-11-16T14:38:19.157Z,1.98
2022-11-16T14:40:20.528Z,1.73
2022-11-16T14:42:48.127Z,1.60
2022-11-16T14:44:59.725Z,1.10
2022-11-16T14:47:02.083Z,1.00
2022-11-16T14:49:04.540Z,1.20
2022-11-16T14:51:29.629Z,0.98
2022-11-16T14:53:32.082Z,0.98
2022-11-16T14:55:46.174Z,1.00
2022-11-16T14:58:06.000Z,1.20
2022-11-16T15:00:25.805Z,1.40
2022-11-16T15:02:27.586Z,1.17
2022-11-16T15:04:40.942Z,1.42
2022-11-16T15:06:54.855Z,1.08
2022-11-16T15:09:00.483Z,2.03
2022-11-16T15:11:09.097Z,1.23
2022-11-16T15:13:20.797Z,2.83
2022-11-16T15:15:29.527Z,3.58
2022-11-16T15:17:33.463Z,4.43
2022-11-16T15:19:41.024Z,2.65
2022-11-16T15:21:50.553Z,1.67
2022-11-16T15:24:28.921Z,1.42
2022-11-16T15:26:30.272Z,1.60
2022-11-16T15:28:33.263Z,1.58
2022-11-16T15:30:37.052Z,1.40
2022-11-16T15:32:41.077Z,3.65
2022-11-16T15:34:42.776Z,1.75
2022-11-16T15:36:50.146Z,2.33
2022-11-16T15:39:01.030Z,1.42
2022-11-16T15:41:03.964Z,1.35
2022-11-16T15:43:06.296Z,1.60
2022-11-16T15:45:15.497Z,1.38
2022-11-16T15:47:27.484Z,1.20
2022-11-16T15:49:38.584Z,1.40
2022-11-16T15:51:50.095Z,1.08
2022-11-16T15:53:52.470Z,2.65
2022-11-16T15:55:53.816Z,1.40
2022-11-16T15:58:29.974Z,1.63
2022-11-16T16:00:40.450Z,1.60
2022-11-16T16:02:44.672Z,1.75
2022-11-16T16:04:47.029Z,1.17
2022-11-16T16:06:50.278Z,1.33
2022-11-16T16:09:04.830Z,1.20
2022-11-16T16:11:21.430Z,1.38
2022-11-16T16:13:37.386Z,1.35
2022-11-16T16:15:41.797Z,1.92
2022-11-16T16:17:55.690Z,1.83
2022-11-16T16:19:58.409Z,2.10
2022-11-16T16:22:11.925Z,1.90
2022-11-16T16:24:33.904Z,1.55
2022-11-16T16:26:35.192Z,2.10
2022-11-16T16:28:36.522Z,1.73
2022-11-16T16:30:39.330Z,1.65
2022-11-16T16:32:40.647Z,2.05
2022-11-16T16:34:42.528Z,1.65
2022-11-16T16:36:54.240Z,2.17
2022-11-16T16:38:58.596Z,1.92
2022-11-16T16:41:04.256Z,2.20
2022-11-16T16:43:05.607Z,2.60
2022-11-16T16:45:12.306Z,2.15
2022-11-16T16:47:14.133Z,2.10
2022-11-16T16:49:17.153Z,2.47
2022-11-16T16:51:30.567Z,2.17
2022-11-16T16:53:32.171Z,2.13
2022-11-16T16:55:37.235Z,2.20
2022-11-16T16:57:48.240Z,2.15
2022-11-16T16:59:52.275Z,2.42
2022-11-16T17:01:53.546Z,3.13
2022-11-16T17:03:56.166Z,2.30
2022-11-16T17:06:06.287Z,2.20
2022-11-16T17:08:07.662Z,2.20
2022-11-16T17:10:09.185Z,2.30
2022-11-16T17:12:10.995Z,2.55
2022-11-16T17:14:12.325Z,1.80
2022-11-16T17:16:19.451Z,1.90
2022-11-16T17:18:23.930Z,2.42
2022-11-16T17:20:30.905Z,2.25
2022-11-16T17:22:41.192Z,2.42
2022-11-16T17:24:48.336Z,2.45
2022-11-16T17:26:58.625Z,2.83
2022-11-16T17:29:00.031Z,2.60
2022-11-16T17:31:05.413Z,2.47
2022-11-16T17:33:06.764Z,2.10
2022-11-16T17:35:08.452Z,2.78
2022-11-16T17:37:15.708Z,2.22
2022-11-16T17:39:24.797Z,2.60
2022-11-16T17:41:34.898Z,2.70
2022-11-16T17:43:43.393Z,2.53
2022-11-16T17:45:47.702Z,2.55
2022-11-16T17:47:52.034Z,2.92
2022-11-16T17:49:53.823Z,2.45
2022-11-16T17:52:01.812Z,2.40
2022-11-16T17:54:06.171Z,2.80
2022-11-16T17:56:07.965Z,3.00
2022-11-16T17:58:09.295Z,2.70
2022-11-16T18:00:13.963Z,2.95
2022-11-16T18:02:15.283Z,2.75
2022-11-16T18:04:22.721Z,2.83
2022-11-16T18:06:25.015Z,2.95
2022-11-16T18:08:29.761Z,2.90
2022-11-16T18:10:31.376Z,2.72
2022-11-16T18:12:33.658Z,2.90
2022-11-16T18:14:37.787Z,2.85
2022-11-16T18:16:47.867Z,3.33
2022-11-16T18:18:54.672Z,2.90
2022-11-16T18:20:56.032Z,3.42
2022-11-16T18:22:57.629Z,3.17
2022-11-16T18:24:58.911Z,3.60
2022-11-16T18:27:00.187Z,3.60
2022-11-16T18:29:01.627Z,3.60
2022-11-16T18:31:04.416Z,3.53
2022-11-16T18:33:05.873Z,3.67
2022-11-16T18:35:09.901Z,4.25
2022-11-16T18:37:11.381Z,4.57
2022-11-16T18:39:12.734Z,3.90
2022-11-16T18:41:14.313Z,4.00
2022-11-16T18:43:15.625Z,4.00
2022-11-16T18:45:17.168Z,3.92
2022-11-16T18:47:21.364Z,3.50
2022-11-16T18:49:25.571Z,3.78
2022-11-16T18:51:27.515Z,3.70
2022-11-16T18:53:29.686Z,3.75
2022-11-16T18:55:36.625Z,3.17
2022-11-16T18:57:43.906Z,3.50
2022-11-16T18:59:45.644Z,3.90
2022-11-16T19:01:46.940Z,3.80
2022-11-16T19:03:55.450Z,2.88
2022-11-16T19:06:09.830Z,3.80
2022-11-16T19:08:11.786Z,3.20
2022-11-16T19:10:14.053Z,4.10
2022-11-16T19:12:15.411Z,3.92
2022-11-16T19:14:16.671Z,4.05
2022-11-16T19:16:17.975Z,4.18
2022-11-16T19:18:21.852Z,4.47
2022-11-16T19:20:34.723Z,4.60
2022-11-16T19:22:36.006Z,4.10
2022-11-16T19:24:43.479Z,4.20
2022-11-16T19:26:53.710Z,3.90
2022-11-16T19:28:55.414Z,4.03
2022-11-16T19:30:56.784Z,4.00
2022-11-16T19:33:01.436Z,4.13
2022-11-16T19:35:02.801Z,3.65
2022-11-16T19:37:10.691Z,4.00
2022-11-16T19:39:23.865Z,3.90
2022-11-16T19:41:31.534Z,3.53
2022-11-16T19:43:36.211Z,4.30
2022-11-16T19:45:37.720Z,3.55
2022-11-16T19:47:45.198Z,3.97
2022-11-16T19:49:50.092Z,3.55
2022-11-16T19:51:51.517Z,4.00
2022-11-16T19:53:53.151Z,7.35
2022-11-16T19:55:54.837Z,11.52
2022-11-16T19:57:59.259Z,3.83
2022-11-16T20:00:07.070Z,4.00
2022-11-16T20:02:09.297Z,3.80
2022-11-16T20:04:19.214Z,3.78
2022-11-16T20:06:21.769Z,4.40
2022-11-16T20:08:23.158Z,4.63
2022-11-16T20:10:30.799Z,4.40
2022-11-16T20:12:35.059Z,4.95
2022-11-16T20:14:42.454Z,3.75
2022-11-16T20:16:50.320Z,4.45
2022-11-16T20:18:58.075Z,3.92
2022-11-16T20:21:02.639Z,4.50
2022-11-16T20:23:09.899Z,4.35
2022-11-16T20:25:11.261Z,4.38
2022-11-16T20:27:15.430Z,4.50
2022-11-16T20:29:25.657Z,4.13
2022-11-16T20:31:40.950Z,4.38
2022-11-16T20:33:52.222Z,4.32
2022-11-16T20:35:59.836Z,4.40
2022-11-16T20:38:03.992Z,4.15
2022-11-16T20:40:05.707Z,4.05
2022-11-16T20:42:19.310Z,3.58
2022-11-16T20:44:31.007Z,3.55
2022-11-16T20:46:40.318Z,3.40
2022-11-16T20:48:45.567Z,3.97
2022-11-16T20:50:50.836Z,3.95
2022-11-16T20:52:58.320Z,3.63
2022-11-16T20:55:13.099Z,3.55
2022-11-16T20:57:14.604Z,4.15
2022-11-16T20:59:16.140Z,4.10
2022-11-16T21:01:18.938Z,4.05
2022-11-16T21:03:27.367Z,4.10
2022-11-16T21:05:28.857Z,4.05
2022-11-16T21:07:36.384Z,4.07
2022-11-16T21:10:05.657Z,4.05
2022-11-16T21:12:28.766Z,4.22
2022-11-16T21:14:30.068Z,4.18
2022-11-16T21:16:31.864Z,3.92
2022-11-16T21:18:39.479Z,4.30
2022-11-16T21:20:40.831Z,3.97
2022-11-16T21:22:48.103Z,4.90
2022-11-16T21:24:52.625Z,4.40
2022-11-16T21:26:53.995Z,4.32
2022-11-16T21:29:06.699Z,4.65
2022-11-16T21:31:09.804Z,4.70
2022-11-16T21:33:11.153Z,5.03
2022-11-16T21:35:12.865Z,4.70
2022-11-16T21:37:16.844Z,4.63
2022-11-16T21:39:21.124Z,4.55
2022-11-16T21:41:25.801Z,4.68
2022-11-16T21:43:27.311Z,4.80
2022-11-16T21:45:38.829Z,4.10
2022-11-16T21:47:40.149Z,4.82
2022-11-16T21:50:08.717Z,4.65
2022-11-16T21:52:08.562Z,4.78
2022-11-16T21:54:09.875Z,4.78
2022-11-16T21:56:15.354Z,4.40
2022-11-16T21:58:16.676Z,4.70
2022-11-16T22:00:26.122Z,4.75
2022-11-16T22:02:27.497Z,4.60
2022-11-16T22:07:36.631Z,4.95
2022-11-16T22:09:46.964Z,4.20
2022-11-16T22:11:51.055Z,4.00
2022-11-16T22:13:58.521Z,4.25
2022-11-16T22:16:12.259Z,3.90
2022-11-16T22:18:13.607Z,3.75
2022-11-16T22:20:15.279Z,3.72
2022-11-16T22:22:16.603Z,4.28
2022-11-16T22:24:25.376Z,4.03
2022-11-16T22:26:26.958Z,4.10
2022-11-16T22:28:40.648Z,3.88
2022-11-16T22:30:51.623Z,4.13
2022-11-16T22:33:00.218Z,3.80
2022-11-16T22:35:01.488Z,4.70
2022-11-16T22:37:08.836Z,4.10
2022-11-16T22:39:10.137Z,4.32
2022-11-16T22:41:11.409Z,4.35
2022-11-16T22:43:12.685Z,4.60
2022-11-16T22:45:20.199Z,4.45
2022-11-16T22:47:21.468Z,4.25
2022-11-16T22:49:22.755Z,4.93
2022-11-16T22:51:25.205Z,4.65
2022-11-16T22:55:41.905Z,4.90
2022-11-16T22:57:43.192Z,4.90
2022-11-16T22:59:44.461Z,3.88
2022-11-16T23:01:45.772Z,4.35
2022-11-16T23:03:55.873Z,4.43
2022-11-16T23:06:04.557Z,4.15
2022-11-16T23:08:05.913Z,4.15
2022-11-16T23:10:07.467Z,5.40
2022-11-16T23:12:30.662Z,3.70
2022-11-16T23:17:16.062Z,3.55
2022-11-16T23:19:36.706Z,3.67
2022-11-16T23:21:56.825Z,3.53
2022-11-16T23:24:18.026Z,3.40
2022-11-16T23:26:48.051Z,3.38
2022-11-16T23:28:55.396Z,3.65
2022-11-16T23:31:05.890Z,3.65
2022-11-16T23:33:10.673Z,3.58
2022-11-16T23:35:17.876Z,3.78
2022-11-16T23:37:22.016Z,3.60
2022-11-16T23:39:26.299Z,3.35
2022-11-16T23:41:46.238Z,3.72
2022-11-16T23:43:59.432Z,3.78
2022-11-16T23:46:06.804Z,3.13
2022-11-16T23:48:09.018Z,3.53
2022-11-16T23:50:16.069Z,3.80
2022-11-16T23:52:17.476Z,3.78
2022-11-16T23:54:21.670Z,3.97
2022-11-16T23:56:23.021Z,3.50
2022-11-16T23:58:24.404Z,3.75
